Scroll down
FLIGHT INFORMATION
Sky Gates Airlines

SAY306

At Arrival Gate

LIRF
 UUEE
DATE: 2020-03-14
GATE:  -
GATE DEPARTURE: 18:57
TAKEOFF: 19:08
DATE: 2020-03-14
GATE:  -
LANDING: 21:54
GATE ARRIVAL: 22:02
FLIGHT DATA
Speed: 
930 kph
Altitude: 
10,368 m
Stage Length: 
2,398.9 km
Block Time: 
3.1 hrs
Flight Time: 
2.8 hrs
Fuel Used: 
33,664 kg
Cleared Route: LIRF TIBER INTUD GOTMO IBENI IPKIS KOPRY SUNOR DEMOP PODAN ODRAP USTIL AMIRI PNK OGARA TAZIP DELON NASKA REKTA DEDOK SODKO ABKOM PASUD MOSON KOMOG RUBAG GUBON FK UUEE
TRACK DATA
50,000 ft 1,000 kts
AIRCRAFT INFO AND CUMULATIVE STATS
Aircraft Type: 
B744F
Registration: 
SELCAL: 
MSN/LN: 
32571 / 1271
Operator: 
Total Flights: 
6
Total Block Time: 
14.2 hrs
Total Flight Time: 
13 hrs
Total Fuel Time: 
135,338 kg
DATALINK LOG | Newest first | Current as of: 2021-05-09 17:26:24
LABEL SEQUENCE CONTENT Dn/Up
QD021022:02 69.1▼ Dn
QC553021:54▼ Dn
GA3550ADVANCED GATE ASSIGNMENTS NOT YET AVAILABLE AT THIS AIRPORT▲ Up
GR2907UUEE 21:53 MAAS YP/UM WCHR/S/C HI-VAL NO DIPL/VIP NO▼ Dn
5R2950MOSON 21:20z FL340 KOMOG 21:28z RUBAG M0.84 36.0 -27 231/32 UUEE 21:53z▼ Dn
5R2939MOSON 21:20z FL340 KOMOG 21:28z RUBAG M0.84 36.0 -27 231/32 UUEE 21:53z▼ Dn
2U1859UUEE 070000Z 17002MPS 130V230 9999 BKN031 06/04 Q1013 R24L/290048 R24R/290045 NOSIG▲ Up
2S1859UUEE▼ Dn
QB082319:08▼ Dn
QA584718:57 143.3▼ Dn
5U5110UUEE 070439Z 17002MPS 0300 -DZ OVC001 06/04 Q1013▲ Up
5S5110UUEE▼ Dn
2U4658UUEE 070000Z 17002MPS 130V230 9999 BKN031 06/04 Q1013 R24L/290048 R24R/290045 NOSIG▲ Up
2U4658LIRF 062350Z 17002KT 9999 FEW030 11/07 Q1004 NOSIG▲ Up
2S4658LIRF UUEE▼ Dn
A35013CLEARED TO UUEE VIA TIB8B TIBER Q549 INTUD GOTMO IBENI IPKIS KOPRY SUNOR DEMOP PODAN ODRAP USTIL AMIRI P26 ABKOM T52 MOSON L158 FK FK3G. SQUAWK 2726.▲ Up
B34429LIRF UUEE SAY306 VP-BCI F ▼ Dn
Q04801[LINK ACK]▲ Up
Q04246[LINK TEST]▼ Dn


AIRCRAFT HISTORY
FLIGHT DATE FLIGHT NO. ORIGIN DESTINATION CLEARED ROUTE BLOCK TIME FLIGHT TIME FUEL USED PILOT
2020-08-15SAY815EDDS ENGM EDDS OKIBA ROLSO RIMKI LOHRE ARNIX FUL MASEK KEMAD PIBUL MEGAR SABAK XENTA REGMA LUNIP ENGM2 hrs1.9 hrs45,149 lbMarc Ehnle
2020-07-25SAY725UUEE EDDS UUEE BG TU SUPEK TEGLU LEGSI BENIM RAMBE LAFAT UPASI VABER SUW KULEK MAGAN IDEXU GOVEN BUKIG KOBUS BEBKU PIKIB ABKIS NOKSI PEROX NURGO URONA UNAVI KULOK ERETO ANELA KEGOS AMOSA ODEGU DKB GEBNO EDDS3 hrs2.8 hrs62,392 lbMarc Ehnle
2020-03-14SAY306LIRF UUEE LIRF TIBER INTUD GOTMO IBENI IPKIS KOPRY SUNOR DEMOP PODAN ODRAP USTIL AMIRI PNK OGARA TAZIP DELON NASKA REKTA DEDOK SODKO ABKOM PASUD MOSON KOMOG RUBAG GUBON FK UUEE3.1 hrs2.8 hrs74,216 lbRobert S. Randazzo
2019-03-18SAY317ESSA LIRF ESSA NOSLI TONSA ABAMA MOKNI NEMBA DEKIK ETPIG ELVIX BIKRU RAKIT MAREM PEMEL RUDAP BARIX BAMTA DEGIN DOSEL TULSI BERAS MIMVI LIZUM LIKDA VESAL GAVRA RITEB LIRF3.3 hrs3 hrs60,302 lbAaron Buchanan
2019-03-13SAY312EFHK ESSA EFHK ADIVO PEPIG POGOK RUNGA XILAN ESSA1 hrs0.8 hrs18,577 lbAaron Buchanan
2019-03-03SAY302UUDD EFHK UUDD LO GOTMA ARSEP UM AR BELAG OLIDI GAPSA ROMEL KUDIM GUBIT PIKAM ATBUR ORTOK NOTAR SUMIM ULKOX BIRSI LEMLA GEPTA INTOR EFHK1.8 hrs1.7 hrs37,734 lbAaron Buchanan